Startown, North Carolina
Current Conditions -  °F | °C
As of 8:53 PM on Sunday 25 Jan 2015 (Local Time) from KHKY Reporting Station
Overcast Overcast  
Wind Chill: 44°   Ceiling: 8000
Heat Index: 48°   Visibility: 10mi
Dew Point: 28°   Wind: 8mph
Humidity: 46%   Direction: 190°S
Pressure: 29.77"   Gusts: NA
Location:  35.6271°N, 81.2599°W
Report Text: KHKY 260153Z AUTO 19007KT 10SM BKN080 OVC100 09/M02 A2977 RMK AO2 SLP073 T00891022
Loading
Personal Weather Stations






























Interactive Weather Map New forecast layout! Learn more

10-Day Weather Forecast

Advertisements
Track Severe Weather on mobile